createdAt,value
2023-07-28T00:02:02.449Z,7.93
2023-07-28T00:04:29.002Z,7.90
2023-07-28T00:06:55.502Z,7.25
2023-07-28T00:09:23.841Z,7.72
2023-07-28T00:11:50.380Z,7.93
2023-07-28T00:14:16.826Z,7.50
2023-07-28T00:16:43.460Z,7.60
2023-07-28T00:19:10.075Z,8.02
2023-07-28T00:21:36.583Z,7.18
2023-07-28T00:24:03.158Z,7.18
2023-07-28T00:26:29.700Z,6.75
2023-07-28T00:28:56.174Z,7.10
2023-07-28T00:31:22.698Z,6.53
2023-07-28T00:33:49.305Z,6.18
2023-07-28T00:36:15.859Z,8.35
2023-07-28T00:38:42.538Z,6.22
2023-07-28T00:41:09.965Z,6.77
2023-07-28T00:43:36.619Z,6.55
2023-07-28T00:46:03.371Z,5.13
2023-07-28T00:48:30.284Z,4.97
2023-07-28T00:50:56.953Z,5.03
2023-07-28T00:53:24.903Z,5.00
2023-07-28T00:55:52.449Z,4.80
2023-07-28T00:58:19.884Z,4.43
2023-07-28T01:00:46.585Z,4.35
2023-07-28T01:03:13.179Z,5.40
2023-07-28T01:05:52.092Z,5.30
2023-07-28T01:08:36.271Z,5.32
2023-07-28T01:11:02.787Z,4.82
2023-07-28T01:13:29.308Z,4.55
2023-07-28T01:15:56.139Z,4.78
2023-07-28T01:18:22.856Z,4.77
2023-07-28T01:20:56.491Z,5.72
2023-07-28T01:24:05.017Z,4.50
2023-07-28T01:26:42.191Z,5.70
2023-07-28T01:29:10.229Z,4.65
2023-07-28T01:31:36.989Z,5.10
2023-07-28T01:34:03.618Z,4.63
2023-07-28T01:36:30.184Z,6.75
2023-07-28T01:38:56.815Z,4.55
2023-07-28T01:41:23.443Z,4.75
2023-07-28T01:43:50.099Z,4.67
2023-07-28T01:46:16.669Z,4.70
2023-07-28T01:48:43.246Z,4.93
2023-07-28T01:51:10.450Z,5.70
2023-07-28T01:53:36.963Z,5.03
2023-07-28T01:56:03.767Z,5.67
2023-07-28T01:58:30.357Z,5.75
2023-07-28T02:00:56.941Z,5.50
2023-07-28T02:03:23.816Z,6.03
2023-07-28T02:05:50.979Z,6.55
2023-07-28T02:08:17.522Z,5.77
2023-07-28T02:10:45.708Z,7.10
2023-07-28T02:13:12.338Z,5.13
2023-07-28T02:15:41.123Z,5.40
2023-07-28T02:18:08.290Z,5.28
2023-07-28T02:20:36.804Z,5.10
2023-07-28T02:23:03.950Z,5.35
2023-07-28T02:25:30.650Z,5.75
2023-07-28T02:27:57.379Z,6.03
2023-07-28T02:30:23.993Z,6.40
2023-07-28T02:32:50.585Z,7.17
2023-07-28T02:35:19.292Z,7.03
2023-07-28T02:37:47.685Z,7.18
2023-07-28T02:40:14.366Z,7.90
2023-07-28T02:42:40.962Z,7.88
2023-07-28T02:45:08.157Z,7.63
2023-07-28T02:47:34.746Z,7.25
2023-07-28T02:50:01.449Z,8.68
2023-07-28T02:52:28.026Z,9.02
2023-07-28T02:54:56.887Z,8.23
2023-07-28T02:57:23.382Z,9.57
2023-07-28T02:59:49.944Z,8.73
2023-07-28T03:02:16.611Z,8.75
2023-07-28T03:04:43.180Z,7.32
2023-07-28T03:07:09.764Z,8.00
2023-07-28T03:09:36.267Z,8.53
2023-07-28T03:12:03.891Z,10.70
2023-07-28T03:14:30.625Z,9.82
2023-07-28T03:16:57.215Z,8.30
2023-07-28T03:19:23.900Z,9.45
2023-07-28T03:21:50.518Z,9.20
2023-07-28T03:24:17.032Z,9.43
2023-07-28T03:26:43.554Z,9.15
2023-07-28T03:29:10.134Z,8.90
2023-07-28T03:31:36.897Z,10.80
2023-07-28T03:34:04.676Z,10.73
2023-07-28T03:36:31.245Z,10.52
2023-07-28T03:38:57.778Z,9.20
2023-07-28T03:41:24.343Z,9.55
2023-07-28T03:43:50.971Z,9.82
2023-07-28T03:46:17.602Z,10.00
2023-07-28T03:48:44.113Z,9.23
2023-07-28T03:51:10.640Z,9.77
2023-07-28T03:53:38.750Z,9.90
2023-07-28T03:56:05.771Z,10.95
2023-07-28T03:58:32.856Z,10.83
2023-07-28T04:00:59.522Z,10.38
2023-07-28T04:03:26.117Z,10.50
2023-07-28T04:05:52.683Z,10.32
2023-07-28T04:08:19.207Z,10.88
2023-07-28T04:10:45.707Z,10.27
2023-07-28T04:13:12.275Z,10.63
2023-07-28T04:15:38.780Z,11.40
2023-07-28T04:18:05.423Z,11.45
2023-07-28T04:20:32.013Z,10.57
2023-07-28T04:22:58.639Z,10.70
2023-07-28T04:25:25.119Z,10.93
2023-07-28T04:27:51.718Z,10.30
2023-07-28T04:30:18.384Z,10.75
2023-07-28T04:32:44.975Z,11.30
2023-07-28T04:35:11.594Z,10.33
2023-07-28T04:37:38.132Z,11.32
2023-07-28T04:40:05.173Z,11.57
2023-07-28T04:42:31.690Z,11.45
2023-07-28T04:44:58.223Z,11.43
2023-07-28T04:47:24.795Z,11.33
2023-07-28T04:49:51.307Z,10.90
2023-07-28T04:52:17.841Z,10.55
2023-07-28T04:54:44.404Z,10.85
2023-07-28T04:57:11.932Z,10.88
2023-07-28T04:59:40.200Z,11.63
2023-07-28T05:02:07.625Z,10.50
2023-07-28T05:04:34.262Z,11.90
2023-07-28T05:07:00.854Z,10.98
2023-07-28T05:09:29.162Z,11.70
2023-07-28T05:11:56.165Z,10.70
2023-07-28T05:14:22.815Z,10.35
2023-07-28T05:16:49.508Z,11.15
2023-07-28T05:19:16.245Z,11.52
2023-07-28T05:21:42.805Z,10.77
2023-07-28T05:24:09.752Z,10.43
2023-07-28T05:26:36.295Z,10.10
2023-07-28T05:29:02.815Z,9.20
2023-07-28T05:31:29.293Z,9.75
2023-07-28T05:33:55.948Z,9.57
2023-07-28T05:36:22.586Z,10.67
2023-07-28T05:38:49.257Z,10.30
2023-07-28T05:41:16.625Z,10.52
2023-07-28T05:43:43.297Z,9.50
2023-07-28T05:46:09.946Z,10.07
2023-07-28T05:48:36.547Z,10.07
2023-07-28T05:51:03.300Z,9.38
2023-07-28T05:53:30.417Z,9.00
2023-07-28T05:55:56.944Z,8.73
2023-07-28T05:58:24.088Z,9.02
2023-07-28T06:00:50.836Z,8.23
2023-07-28T06:03:17.700Z,8.80
2023-07-28T06:05:44.364Z,8.82
2023-07-28T06:08:10.864Z,8.23
2023-07-28T06:10:38.181Z,9.93
2023-07-28T06:13:04.765Z,8.40
2023-07-28T06:15:31.400Z,8.15
2023-07-28T06:17:58.237Z,8.27
2023-07-28T06:20:25.364Z,9.32
2023-07-28T06:22:51.957Z,8.70
2023-07-28T06:25:18.732Z,8.77
2023-07-28T06:27:45.282Z,9.65
2023-07-28T06:30:12.307Z,7.60
2023-07-28T06:32:38.924Z,8.57
2023-07-28T06:35:08.168Z,8.15
2023-07-28T06:37:36.131Z,7.53
2023-07-28T06:40:02.777Z,8.00
2023-07-28T06:42:29.313Z,7.82
2023-07-28T06:44:55.890Z,7.82
2023-07-28T06:47:22.419Z,8.20
2023-07-28T06:49:49.840Z,8.73
2023-07-28T06:52:16.376Z,8.98
2023-07-28T06:54:42.947Z,9.32
2023-07-28T06:57:09.643Z,8.60
2023-07-28T06:59:36.301Z,8.45
2023-07-28T07:02:02.940Z,8.90
2023-07-28T07:04:29.512Z,8.65
2023-07-28T07:06:56.116Z,8.50
2023-07-28T07:09:22.643Z,8.98
2023-07-28T07:11:49.415Z,8.43
2023-07-28T07:14:15.914Z,9.37
2023-07-28T07:16:42.697Z,9.07
2023-07-28T07:19:10.115Z,9.30
2023-07-28T07:21:37.023Z,9.55
2023-07-28T07:24:05.266Z,8.77
2023-07-28T07:26:34.622Z,9.30
2023-07-28T07:29:01.258Z,8.98
2023-07-28T07:31:28.172Z,9.40
2023-07-28T07:33:54.689Z,10.25
2023-07-28T07:36:21.419Z,10.35
2023-07-28T07:38:49.783Z,8.67
2023-07-28T07:41:22.632Z,9.30
2023-07-28T07:43:50.767Z,8.88
2023-07-28T07:46:17.483Z,7.90
2023-07-28T07:48:44.319Z,7.38
2023-07-28T07:51:10.893Z,7.07
2023-07-28T07:53:37.499Z,7.38
2023-07-28T07:56:04.843Z,6.63
2023-07-28T07:58:31.859Z,7.47
2023-07-28T08:00:58.419Z,6.10
2023-07-28T08:03:25.169Z,6.73
2023-07-28T08:05:52.603Z,6.38
2023-07-28T08:08:20.757Z,5.97
2023-07-28T08:10:48.326Z,5.35
2023-07-28T08:13:15.818Z,5.82
2023-07-28T08:15:46.189Z,6.10
2023-07-28T08:18:14.073Z,5.47
2023-07-28T08:20:40.814Z,5.38
2023-07-28T08:23:07.472Z,6.15
2023-07-28T08:25:35.552Z,4.88
2023-07-28T08:28:02.663Z,3.53
2023-07-28T08:30:29.410Z,3.92
2023-07-28T08:32:55.917Z,2.90
2023-07-28T08:35:22.494Z,3.17
2023-07-28T08:37:48.943Z,2.88
2023-07-28T08:40:15.669Z,2.73
2023-07-28T08:42:42.205Z,2.20
2023-07-28T08:45:09.555Z,3.30
2023-07-28T08:47:38.182Z,3.63
2023-07-28T08:50:07.116Z,2.85
2023-07-28T08:52:33.946Z,2.20
2023-07-28T08:55:00.503Z,2.38
2023-07-28T08:57:28.342Z,3.00
2023-07-28T08:59:55.541Z,2.40
2023-07-28T09:02:22.752Z,2.00
2023-07-28T09:04:50.164Z,2.10
2023-07-28T09:07:16.719Z,1.92
2023-07-28T09:09:43.687Z,1.88
2023-07-28T09:12:10.303Z,2.13
2023-07-28T09:14:38.146Z,1.67
2023-07-28T09:17:13.980Z,1.43
2023-07-28T09:19:54.437Z,2.85
2023-07-28T09:22:21.633Z,1.40
2023-07-28T09:24:49.016Z,1.38
2023-07-28T09:27:24.280Z,1.88
2023-07-28T09:29:58.828Z,1.63
2023-07-28T09:32:34.055Z,1.75
2023-07-28T09:35:10.584Z,1.33
2023-07-28T09:37:40.467Z,1.52
2023-07-28T09:40:14.772Z,2.08
2023-07-28T09:42:51.036Z,1.47
2023-07-28T09:45:36.570Z,1.35
2023-07-28T09:48:10.358Z,1.45
2023-07-28T09:50:39.650Z,1.70
2023-07-28T09:53:09.738Z,1.33
2023-07-28T09:55:40.646Z,1.63
2023-07-28T09:58:11.195Z,1.65
2023-07-28T10:00:38.562Z,1.52
2023-07-28T10:03:05.597Z,1.70
2023-07-28T10:05:33.826Z,1.90
2023-07-28T10:08:01.040Z,1.57
2023-07-28T10:10:28.122Z,2.17
2023-07-28T10:12:58.172Z,2.15
2023-07-28T10:15:30.937Z,2.22
2023-07-28T10:17:59.982Z,1.77
2023-07-28T10:20:40.549Z,2.53
2023-07-28T10:23:16.720Z,1.85
2023-07-28T10:25:45.473Z,2.05
2023-07-28T10:28:33.326Z,1.80
2023-07-28T10:31:00.957Z,1.48
2023-07-28T10:33:31.334Z,1.60
2023-07-28T10:36:00.368Z,1.98
2023-07-28T10:38:35.748Z,2.05
2023-07-28T10:41:19.771Z,2.03
2023-07-28T10:43:47.288Z,1.70
2023-07-28T10:46:17.881Z,1.80
2023-07-28T10:48:47.056Z,1.75
2023-07-28T10:51:21.884Z,2.03
2023-07-28T10:53:51.698Z,2.10
2023-07-28T10:56:19.898Z,2.13
2023-07-28T10:58:46.401Z,2.30
2023-07-28T11:01:13.057Z,2.10
2023-07-28T11:03:41.212Z,2.22
2023-07-28T11:06:07.845Z,3.03
2023-07-28T11:08:36.319Z,2.25
2023-07-28T11:11:05.241Z,2.80
2023-07-28T11:13:40.830Z,3.25
2023-07-28T11:16:09.090Z,4.30
2023-07-28T11:18:35.602Z,3.88
2023-07-28T11:21:02.135Z,3.88
2023-07-28T11:23:29.779Z,3.73
2023-07-28T11:25:56.436Z,4.18
2023-07-28T11:28:23.057Z,3.40
2023-07-28T11:30:49.916Z,3.17
2023-07-28T11:33:16.628Z,3.20
2023-07-28T11:35:45.735Z,2.80
2023-07-28T11:38:13.679Z,3.85
2023-07-28T11:40:40.887Z,4.88
2023-07-28T11:43:07.792Z,5.18
2023-07-28T11:45:34.363Z,4.53
2023-07-28T11:48:07.052Z,4.87
2023-07-28T11:50:39.850Z,4.35
2023-07-28T11:53:07.535Z,4.03
2023-07-28T11:55:37.748Z,3.92
2023-07-28T11:58:06.441Z,4.00
2023-07-28T12:00:37.286Z,4.37
2023-07-28T12:03:14.544Z,4.07
2023-07-28T12:06:13.398Z,3.60
2023-07-28T12:08:41.088Z,3.13
2023-07-28T12:19:15.298Z,2.80
2023-07-28T12:21:42.360Z,3.10
2023-07-28T12:24:09.011Z,3.22
2023-07-28T12:26:38.000Z,2.93
2023-07-28T12:31:45.978Z,2.30
2023-07-28T12:34:25.406Z,1.80
2023-07-28T12:36:54.397Z,1.65
2023-07-28T12:42:13.938Z,2.28
2023-07-28T12:47:12.164Z,2.80
2023-07-28T12:49:38.777Z,1.90
2023-07-28T12:52:19.679Z,1.73
2023-07-28T12:54:46.787Z,1.75
2023-07-28T12:57:14.017Z,1.95
2023-07-28T13:02:20.429Z,1.52
2023-07-28T13:04:46.887Z,1.70
2023-07-28T13:09:43.130Z,1.90
2023-07-28T13:14:39.303Z,1.90
2023-07-28T13:17:07.473Z,1.50
2023-07-28T13:19:34.079Z,1.48
2023-07-28T13:22:00.660Z,1.35
2023-07-28T13:24:30.627Z,1.95
2023-07-28T13:26:58.207Z,2.58
2023-07-28T13:29:27.613Z,3.33
2023-07-28T13:32:02.398Z,2.50
2023-07-28T13:34:29.165Z,2.55
2023-07-28T13:36:56.708Z,2.85
2023-07-28T13:39:24.708Z,1.98
2023-07-28T13:41:51.492Z,1.80
2023-07-28T13:44:18.069Z,1.80
2023-07-28T13:46:44.692Z,2.17
2023-07-28T13:49:11.474Z,2.70
2023-07-28T13:59:19.056Z,2.30
2023-07-28T14:01:45.619Z,2.10
2023-07-28T14:04:12.387Z,1.60
2023-07-28T14:06:39.413Z,2.20
2023-07-28T14:09:05.955Z,2.33
2023-07-28T14:11:32.596Z,2.60
2023-07-28T14:13:59.183Z,2.60
2023-07-28T14:16:25.946Z,2.40
2023-07-28T14:18:52.584Z,1.63
2023-07-28T14:21:19.598Z,2.17
2023-07-28T14:23:46.076Z,1.88
2023-07-28T14:26:15.659Z,2.00
2023-07-28T14:28:42.387Z,1.90
2023-07-28T14:31:09.042Z,2.38
2023-07-28T14:33:35.659Z,2.07
2023-07-28T14:36:02.134Z,2.13
2023-07-28T14:38:28.718Z,1.70
2023-07-28T14:40:55.214Z,2.13
2023-07-28T14:43:30.544Z,2.10
2023-07-28T14:45:57.095Z,2.60
2023-07-28T14:48:23.639Z,2.92
2023-07-28T14:50:50.188Z,2.58
2023-07-28T14:53:49.505Z,2.00
2023-07-28T14:56:17.978Z,1.98
2023-07-28T14:58:44.903Z,1.93
2023-07-28T15:01:12.285Z,2.30
2023-07-28T15:03:39.890Z,2.13
2023-07-28T15:06:06.677Z,2.95
2023-07-28T15:08:33.458Z,3.17
2023-07-28T15:11:00.670Z,4.27
2023-07-28T15:13:27.473Z,4.95
2023-07-28T15:15:55.523Z,6.05
2023-07-28T15:18:22.172Z,5.32
2023-07-28T15:20:48.846Z,5.88
2023-07-28T15:23:15.432Z,5.50
2023-07-28T15:25:46.995Z,5.75
2023-07-28T15:28:15.015Z,6.05
2023-07-28T15:30:46.362Z,7.65
2023-07-28T15:33:13.890Z,4.88
2023-07-28T15:35:40.559Z,5.63
2023-07-28T15:38:07.307Z,4.30
2023-07-28T15:40:34.087Z,3.83
2023-07-28T15:43:00.684Z,3.20
2023-07-28T15:45:27.539Z,2.70
2023-07-28T15:47:54.111Z,2.63
2023-07-28T15:50:20.829Z,1.80
2023-07-28T15:52:48.202Z,1.23
2023-07-28T15:55:14.846Z,1.80
2023-07-28T15:57:41.642Z,1.92
2023-07-28T16:00:11.099Z,1.57
2023-07-28T16:02:38.125Z,1.75
2023-07-28T16:05:05.227Z,1.80
2023-07-28T16:07:33.647Z,1.40
2023-07-28T16:10:00.831Z,1.23
2023-07-28T16:12:27.520Z,0.97
2023-07-28T16:14:55.594Z,1.10
2023-07-28T16:17:22.660Z,0.95
2023-07-28T16:19:49.262Z,0.65
2023-07-28T16:22:15.808Z,0.75
2023-07-28T16:24:42.852Z,0.60
2023-07-28T16:27:10.493Z,0.60
2023-07-28T16:29:37.110Z,0.63
2023-07-28T16:32:03.646Z,0.80
2023-07-28T16:34:30.446Z,1.02
2023-07-28T16:36:56.983Z,1.20
2023-07-28T16:39:23.543Z,1.20
2023-07-28T16:41:51.115Z,1.88
2023-07-28T16:44:17.757Z,1.40
2023-07-28T16:46:44.265Z,1.98
2023-07-28T16:49:10.832Z,1.90
2023-07-28T16:51:37.862Z,1.45
2023-07-28T16:54:04.571Z,1.42
2023-07-28T16:56:31.119Z,1.30
2023-07-28T16:58:57.641Z,1.00
2023-07-28T17:01:27.141Z,0.70
2023-07-28T17:03:53.693Z,0.50
2023-07-28T17:06:20.218Z,0.43
2023-07-28T17:08:48.226Z,0.40
2023-07-28T17:11:15.059Z,0.30
2023-07-28T17:13:41.605Z,0.40
2023-07-28T17:16:08.185Z,0.35
2023-07-28T17:18:34.725Z,0.35
2023-07-28T17:21:01.334Z,0.40
2023-07-28T17:23:28.149Z,0.52
2023-07-28T17:25:54.772Z,0.50
2023-07-28T17:28:21.456Z,0.60
2023-07-28T17:30:48.616Z,0.70
2023-07-28T17:33:15.303Z,0.60
2023-07-28T17:35:41.957Z,0.57
2023-07-28T17:38:09.754Z,0.50
2023-07-28T17:40:36.258Z,0.90
2023-07-28T17:43:02.782Z,1.15
2023-07-28T17:45:29.348Z,1.00
2023-07-28T17:47:55.854Z,1.20
2023-07-28T17:50:22.604Z,0.83
2023-07-28T17:52:50.597Z,0.90
2023-07-28T17:55:18.208Z,0.98
2023-07-28T17:57:45.759Z,1.30
2023-07-28T18:00:18.642Z,1.25
2023-07-28T18:02:46.353Z,1.20
2023-07-28T18:05:15.658Z,1.42
2023-07-28T18:07:42.294Z,0.95
2023-07-28T18:10:09.666Z,0.98
2023-07-28T18:12:36.452Z,1.30
2023-07-28T18:15:07.538Z,1.17
2023-07-28T18:17:34.783Z,1.02
2023-07-28T18:20:01.461Z,0.90
2023-07-28T18:22:28.350Z,0.82
2023-07-28T18:24:55.745Z,0.77
2023-07-28T18:27:22.353Z,0.93
2023-07-28T18:29:49.690Z,1.02
2023-07-28T18:32:16.250Z,0.80
2023-07-28T18:34:42.912Z,0.55
2023-07-28T18:37:09.711Z,0.70
2023-07-28T18:39:38.327Z,0.67
2023-07-28T18:42:05.692Z,0.63
2023-07-28T18:44:32.439Z,0.45
2023-07-28T18:47:00.714Z,0.60
2023-07-28T18:49:27.481Z,0.73
2023-07-28T18:51:54.147Z,0.50
2023-07-28T18:54:22.220Z,0.70
2023-07-28T18:56:49.668Z,0.40
2023-07-28T18:59:16.992Z,1.30
2023-07-28T19:01:43.668Z,1.48
2023-07-28T19:04:11.360Z,1.13
2023-07-28T19:06:52.165Z,0.85
2023-07-28T19:09:19.761Z,0.63
2023-07-28T19:11:46.321Z,0.55
2023-07-28T19:14:12.843Z,0.60
2023-07-28T19:16:39.608Z,0.60
2023-07-28T19:19:06.252Z,0.70
2023-07-28T19:21:32.898Z,0.80
2023-07-28T19:23:59.462Z,0.70
2023-07-28T19:26:26.218Z,0.60
2023-07-28T19:28:53.801Z,0.70
2023-07-28T19:31:21.479Z,0.60
2023-07-28T19:33:48.345Z,0.77
2023-07-28T19:36:15.451Z,0.93
2023-07-28T19:38:42.146Z,1.02
2023-07-28T19:41:12.915Z,1.13
2023-07-28T19:43:39.883Z,0.88
2023-07-28T19:46:06.552Z,1.20
2023-07-28T19:48:33.276Z,0.98
2023-07-28T19:51:21.198Z,0.90
2023-07-28T19:53:50.811Z,0.80
2023-07-28T19:56:20.568Z,1.05
2023-07-28T19:58:47.128Z,0.90
2023-07-28T20:01:14.364Z,0.95
2023-07-28T20:03:41.075Z,0.70
2023-07-28T20:06:08.645Z,1.00
2023-07-28T20:08:36.673Z,1.23
2023-07-28T20:11:05.475Z,1.08
2023-07-28T20:13:32.060Z,0.90
2023-07-28T20:15:59.679Z,0.80
2023-07-28T20:18:26.547Z,1.27
2023-07-28T20:20:53.234Z,0.95
2023-07-28T20:23:20.411Z,0.63
2023-07-28T20:25:47.411Z,0.90
2023-07-28T20:28:14.257Z,0.73
2023-07-28T20:30:40.984Z,0.87
2023-07-28T20:33:07.593Z,1.08
2023-07-28T20:35:39.851Z,0.82
2023-07-28T20:38:07.274Z,0.95
2023-07-28T20:40:33.983Z,0.75
2023-07-28T20:43:00.776Z,1.00
2023-07-28T20:45:27.532Z,1.10
2023-07-28T20:47:54.160Z,0.70
2023-07-28T20:50:20.762Z,0.90
2023-07-28T20:52:47.822Z,1.13
2023-07-28T20:55:14.326Z,0.77
2023-07-28T20:57:41.098Z,1.05
2023-07-28T21:00:09.094Z,1.00
2023-07-28T21:02:36.274Z,0.98
2023-07-28T21:05:03.743Z,2.65
2023-07-28T21:07:30.630Z,2.70
2023-07-28T21:09:57.152Z,1.85
2023-07-28T21:12:47.962Z,2.00
2023-07-28T21:15:17.581Z,1.10
2023-07-28T21:17:44.539Z,1.20
2023-07-28T21:20:14.145Z,1.67
2023-07-28T21:22:40.838Z,1.88
2023-07-28T21:25:08.416Z,1.23
2023-07-28T21:27:36.122Z,1.67
2023-07-28T21:30:03.784Z,1.17
2023-07-28T21:32:30.373Z,1.80
2023-07-28T21:34:56.951Z,1.60
2023-07-28T21:37:25.483Z,1.35
2023-07-28T21:39:52.017Z,1.50
2023-07-28T21:42:18.574Z,1.58
2023-07-28T21:44:45.304Z,1.00
2023-07-28T21:47:11.842Z,1.40
2023-07-28T21:49:38.392Z,2.45
2023-07-28T21:52:05.315Z,1.00
2023-07-28T21:54:31.854Z,1.40
2023-07-28T21:56:58.741Z,1.10
2023-07-28T21:59:26.452Z,0.90
2023-07-28T22:01:53.225Z,0.80
2023-07-28T22:04:20.040Z,0.50
2023-07-28T22:06:46.946Z,0.80
2023-07-28T22:09:13.528Z,0.50
2023-07-28T22:11:43.187Z,0.63
2023-07-28T22:14:12.877Z,0.60
2023-07-28T22:16:42.202Z,0.35
2023-07-28T22:19:09.458Z,0.80
2023-07-28T22:21:38.181Z,1.20
2023-07-28T22:24:08.785Z,1.88
2023-07-28T22:26:35.948Z,2.03
2023-07-28T22:29:03.033Z,1.25
2023-07-28T22:31:29.720Z,0.43
2023-07-28T22:33:56.982Z,0.40
2023-07-28T22:36:23.714Z,0.20
2023-07-28T22:38:50.271Z,0.40
2023-07-28T22:41:16.916Z,0.40
2023-07-28T22:43:43.550Z,0.45
2023-07-28T22:46:10.252Z,0.30
2023-07-28T22:48:36.950Z,0.32
2023-07-28T22:51:06.596Z,0.30
2023-07-28T22:53:34.098Z,0.35
2023-07-28T22:56:00.785Z,0.28
2023-07-28T22:58:28.088Z,0.20
2023-07-28T23:00:55.507Z,0.45
2023-07-28T23:03:22.073Z,0.30
2023-07-28T23:05:48.683Z,0.40
2023-07-28T23:08:15.281Z,0.25
2023-07-28T23:10:47.215Z,0.30
2023-07-28T23:13:16.966Z,0.40
2023-07-28T23:15:43.743Z,0.20
2023-07-28T23:18:10.315Z,0.30
2023-07-28T23:20:36.942Z,0.30
2023-07-28T23:23:04.669Z,0.53
2023-07-28T23:25:34.420Z,0.45
2023-07-28T23:28:01.125Z,0.30
2023-07-28T23:30:28.578Z,0.20
2023-07-28T23:32:55.255Z,0.30
2023-07-28T23:35:21.896Z,0.20
2023-07-28T23:37:49.037Z,0.52
2023-07-28T23:40:15.685Z,0.30
2023-07-28T23:42:43.352Z,0.30
2023-07-28T23:45:10.569Z,0.30
2023-07-28T23:47:37.435Z,0.27
2023-07-28T23:50:04.249Z,0.40
2023-07-28T23:52:31.119Z,0.30
2023-07-28T23:54:58.459Z,0.30
2023-07-28T23:57:25.015Z,0.40
2023-07-28T23:59:51.532Z,0.30
